sensor_id;sensor_type;location;lat;lon;timestamp;pressure;altitude;pressure_sealevel;temperature;humidity
11114;BME280;5610;52.154;9.198;2023-04-08T00:00:37;101336.13;;;9.11;100.00
11114;BME280;5610;52.154;9.198;2023-04-08T00:03:22;101335.25;;;9.11;100.00
11114;BME280;5610;52.154;9.198;2023-04-08T00:06:07;101339.44;;;9.16;100.00
11114;BME280;5610;52.154;9.198;2023-04-08T00:08:52;101333.97;;;9.19;100.00
11114;BME280;5610;52.154;9.198;2023-04-08T00:11:38;101342.75;;;9.21;100.00
11114;BME280;5610;52.154;9.198;2023-04-08T00:14:25;101336.63;;;9.19;100.00
11114;BME280;5610;52.154;9.198;2023-04-08T00:17:10;101338.44;;;9.19;100.00
11114;BME280;5610;52.154;9.198;2023-04-08T00:19:55;101343.81;;;9.17;100.00
11114;BME280;5610;52.154;9.198;2023-04-08T00:22:40;101341.16;;;9.17;100.00
11114;BME280;5610;52.154;9.198;2023-04-08T00:25:25;101341.56;;;9.08;100.00
11114;BME280;5610;52.154;9.198;2023-04-08T00:28:11;101343.69;;;9.00;100.00
11114;BME280;5610;52.154;9.198;2023-04-08T00:30:57;101352.06;;;8.91;100.00
11114;BME280;5610;52.154;9.198;2023-04-08T00:33:43;101347.34;;;8.97;100.00
11114;BME280;5610;52.154;9.198;2023-04-08T00:36:30;101355.25;;;8.99;100.00
11114;BME280;5610;52.154;9.198;2023-04-08T00:39:16;101343.63;;;9.01;100.00
11114;BME280;5610;52.154;9.198;2023-04-08T00:42:02;101350.59;;;9.04;100.00
11114;BME280;5610;52.154;9.198;2023-04-08T00:44:47;101345.16;;;9.07;100.00
11114;BME280;5610;52.154;9.198;2023-04-08T00:47:34;101349.59;;;9.06;100.00
11114;BME280;5610;52.154;9.198;2023-04-08T00:50:20;101345.16;;;9.07;100.00
11114;BME280;5610;52.154;9.198;2023-04-08T00:53:05;101331.94;;;9.05;100.00
11114;BME280;5610;52.154;9.198;2023-04-08T00:55:51;101338.19;;;9.04;100.00
11114;BME280;5610;52.154;9.198;2023-04-08T00:58:38;101343.34;;;9.07;100.00
11114;BME280;5610;52.154;9.198;2023-04-08T01:01:30;101351.31;;;9.07;100.00
11114;BME280;5610;52.154;9.198;2023-04-08T01:04:27;101339.81;;;9.07;100.00
11114;BME280;5610;52.154;9.198;2023-04-08T01:07:16;101334.44;;;9.08;100.00
11114;BME280;5610;52.154;9.198;2023-04-08T01:10:04;101338.84;;;9.10;100.00
11114;BME280;5610;52.154;9.198;2023-04-08T01:12:53;101336.19;;;9.10;100.00
11114;BME280;5610;52.154;9.198;2023-04-08T01:15:39;101340.56;;;9.11;100.00
11114;BME280;5610;52.154;9.198;2023-04-08T01:18:27;101343.06;;;9.14;100.00
11114;BME280;5610;52.154;9.198;2023-04-08T01:21:16;101335.19;;;9.12;100.00
11114;BME280;5610;52.154;9.198;2023-04-08T01:24:06;101337.84;;;9.12;100.00
11114;BME280;5610;52.154;9.198;2023-04-08T01:26:56;101337.84;;;9.12;100.00
11114;BME280;5610;52.154;9.198;2023-04-08T01:29:43;101331.66;;;9.12;100.00
11114;BME280;5610;52.154;9.198;2023-04-08T01:32:30;101330.06;;;9.07;100.00
11114;BME280;5610;52.154;9.198;2023-04-08T01:35:16;101340.75;;;9.06;100.00
11114;BME280;5610;52.154;9.198;2023-04-08T01:38:02;101332.72;;;9.07;100.00
11114;BME280;5610;52.154;9.198;2023-04-08T01:40:51;101327.66;;;9.01;100.00
11114;BME280;5610;52.154;9.198;2023-04-08T01:43:39;101337.44;;;9.01;100.00
11114;BME280;5610;52.154;9.198;2023-04-08T01:46:26;101333.91;;;9.00;100.00
11114;BME280;5610;52.154;9.198;2023-04-08T01:49:14;101340.25;;;8.98;100.00
11114;BME280;5610;52.154;9.198;2023-04-08T01:52:00;101342.31;;;8.91;100.00
11114;BME280;5610;52.154;9.198;2023-04-08T01:54:46;101342.03;;;8.77;100.00
11114;BME280;5610;52.154;9.198;2023-04-08T01:57:34;101344.16;;;8.69;100.00
11114;BME280;5610;52.154;9.198;2023-04-08T02:00:25;101332.84;;;8.64;100.00
11114;BME280;5610;52.154;9.198;2023-04-08T02:03:12;101342.00;;;8.57;100.00
11114;BME280;5610;52.154;9.198;2023-04-08T02:05:58;101346.47;;;8.56;100.00
11114;BME280;5610;52.154;9.198;2023-04-08T02:08:44;101349.25;;;8.53;100.00
11114;BME280;5610;52.154;9.198;2023-04-08T02:11:29;101346.38;;;8.58;100.00
11114;BME280;5610;52.154;9.198;2023-04-08T02:14:15;101350.84;;;8.57;100.00
11114;BME280;5610;52.154;9.198;2023-04-08T02:17:09;101358.56;;;8.63;100.00
11114;BME280;5610;52.154;9.198;2023-04-08T02:19:58;101357.56;;;8.66;100.00
11114;BME280;5610;52.154;9.198;2023-04-08T02:22:48;101359.16;;;8.70;100.00
11114;BME280;5610;52.154;9.198;2023-04-08T02:25:36;101354.53;;;8.75;100.00
11114;BME280;5610;52.154;9.198;2023-04-08T02:28:23;101354.53;;;8.75;100.00
11114;BME280;5610;52.154;9.198;2023-04-08T02:31:10;101353.44;;;8.79;100.00
11114;BME280;5610;52.154;9.198;2023-04-08T02:34:04;101355.25;;;8.78;100.00
11114;BME280;5610;52.154;9.198;2023-04-08T02:36:50;101349.06;;;8.78;100.00
11114;BME280;5610;52.154;9.198;2023-04-08T02:39:36;101348.22;;;8.77;100.00
11114;BME280;5610;52.154;9.198;2023-04-08T02:42:21;101350.94;;;8.76;100.00
11114;BME280;5610;52.154;9.198;2023-04-08T02:45:07;101354.53;;;8.75;100.00
11114;BME280;5610;52.154;9.198;2023-04-08T02:47:52;101353.59;;;8.76;100.00
11114;BME280;5610;52.154;9.198;2023-04-08T02:50:39;101360.78;;;8.74;100.00
11114;BME280;5610;52.154;9.198;2023-04-08T02:53:24;101369.66;;;8.73;100.00
11114;BME280;5610;52.154;9.198;2023-04-08T02:56:09;101377.63;;;8.73;100.00
11114;BME280;5610;52.154;9.198;2023-04-08T02:58:54;101381.97;;;8.75;100.00
11114;BME280;5610;52.154;9.198;2023-04-08T03:01:39;101373.13;;;8.75;100.00
11114;BME280;5610;52.154;9.198;2023-04-08T03:04:25;101371.50;;;8.71;100.00
11114;BME280;5610;52.154;9.198;2023-04-08T03:07:11;101375.97;;;8.70;100.00
11114;BME280;5610;52.154;9.198;2023-04-08T03:09:56;101376.84;;;8.71;100.00
11114;BME280;5610;52.154;9.198;2023-04-08T03:12:41;101374.09;;;8.72;100.00
11114;BME280;5610;52.154;9.198;2023-04-08T03:15:27;101381.97;;;8.75;100.00
11114;BME280;5610;52.154;9.198;2023-04-08T03:18:12;101377.44;;;8.77;100.00
11114;BME280;5610;52.154;9.198;2023-04-08T03:20:57;101385.47;;;8.76;100.00
11114;BME280;5610;52.154;9.198;2023-04-08T03:23:44;101388.94;;;8.78;100.00
11114;BME280;5610;52.154;9.198;2023-04-08T03:26:29;101384.69;;;8.74;100.00
11114;BME280;5610;52.154;9.198;2023-04-08T03:29:14;101387.28;;;8.75;100.00
11114;BME280;5610;52.154;9.198;2023-04-08T03:31:59;101382.75;;;8.77;100.00
11114;BME280;5610;52.154;9.198;2023-04-08T03:34:45;101382.91;;;8.74;100.00
11114;BME280;5610;52.154;9.198;2023-04-08T03:37:30;101382.81;;;8.76;100.00
11114;BME280;5610;52.154;9.198;2023-04-08T03:40:17;101386.34;;;8.76;100.00
11114;BME280;5610;52.154;9.198;2023-04-08T03:43:02;101388.22;;;8.74;100.00
11114;BME280;5610;52.154;9.198;2023-04-08T03:45:48;101384.56;;;8.77;100.00
11114;BME280;5610;52.154;9.198;2023-04-08T03:48:33;101389.00;;;8.76;100.00
11114;BME280;5610;52.154;9.198;2023-04-08T03:51:18;101388.84;;;8.79;100.00
11114;BME280;5610;52.154;9.198;2023-04-08T03:54:04;101384.47;;;8.78;100.00
11114;BME280;5610;52.154;9.198;2023-04-08T03:56:51;101385.47;;;8.76;100.00
11114;BME280;5610;52.154;9.198;2023-04-08T03:59:37;101389.94;;;8.75;100.00
11114;BME280;5610;52.154;9.198;2023-04-08T04:02:23;101388.16;;;8.76;100.00
11114;BME280;5610;52.154;9.198;2023-04-08T04:05:09;101386.28;;;8.78;100.00
11114;BME280;5610;52.154;9.198;2023-04-08T04:07:54;101385.34;;;8.79;100.00
11114;BME280;5610;52.154;9.198;2023-04-08T04:10:41;101395.03;;;8.80;100.00
11114;BME280;5610;52.154;9.198;2023-04-08T04:13:28;101392.34;;;8.82;100.00
11114;BME280;5610;52.154;9.198;2023-04-08T04:16:13;101396.91;;;8.78;100.00
11114;BME280;5610;52.154;9.198;2023-04-08T04:18:58;101397.75;;;8.78;100.00
11114;BME280;5610;52.154;9.198;2023-04-08T04:21:44;101396.03;;;8.77;100.00
11114;BME280;5610;52.154;9.198;2023-04-08T04:24:29;101403.22;;;8.75;100.00
11114;BME280;5610;52.154;9.198;2023-04-08T04:27:14;101405.34;;;8.67;100.00
11114;BME280;5610;52.154;9.198;2023-04-08T04:30:02;101413.09;;;8.72;100.00
11114;BME280;5610;52.154;9.198;2023-04-08T04:32:47;101400.63;;;8.74;100.00
11114;BME280;5610;52.154;9.198;2023-04-08T04:35:32;101399.69;;;8.75;100.00
11114;BME280;5610;52.154;9.198;2023-04-08T04:38:18;101420.88;;;8.76;100.00
11114;BME280;5610;52.154;9.198;2023-04-08T04:41:03;101427.13;;;8.75;100.00
11114;BME280;5610;52.154;9.198;2023-04-08T04:43:49;101430.66;;;8.76;100.00
11114;BME280;5610;52.154;9.198;2023-04-08T04:46:35;101433.31;;;8.76;100.00
11114;BME280;5610;52.154;9.198;2023-04-08T04:49:21;101436.91;;;8.75;100.00
11114;BME280;5610;52.154;9.198;2023-04-08T04:52:06;101435.19;;;8.74;100.00
11114;BME280;5610;52.154;9.198;2023-04-08T04:54:51;101422.16;;;8.68;100.00
11114;BME280;5610;52.154;9.198;2023-04-08T04:57:37;101429.25;;;8.67;100.00
11114;BME280;5610;52.154;9.198;2023-04-08T05:00:22;101430.91;;;8.70;100.00
11114;BME280;5610;52.154;9.198;2023-04-08T05:03:08;101428.06;;;8.74;100.00
11114;BME280;5610;52.154;9.198;2023-04-08T05:05:53;101427.22;;;8.74;100.00
11114;BME280;5610;52.154;9.198;2023-04-08T05:08:39;101419.34;;;8.71;100.00
11114;BME280;5610;52.154;9.198;2023-04-08T05:11:24;101423.72;;;8.72;100.00
11114;BME280;5610;52.154;9.198;2023-04-08T05:14:10;101431.69;;;8.72;100.00
11114;BME280;5610;52.154;9.198;2023-04-08T05:16:55;101434.50;;;8.69;100.00
11114;BME280;5610;52.154;9.198;2023-04-08T05:19:42;101439.06;;;8.65;100.00
11114;BME280;5610;52.154;9.198;2023-04-08T05:22:27;101440.00;;;8.64;100.00
11114;BME280;5610;52.154;9.198;2023-04-08T05:25:12;101448.97;;;8.62;100.00
11114;BME280;5610;52.154;9.198;2023-04-08T05:27:57;101448.81;;;8.65;100.00
11114;BME280;5610;52.154;9.198;2023-04-08T05:30:47;101454.03;;;8.68;100.00
11114;BME280;5610;52.154;9.198;2023-04-08T05:33:33;101464.50;;;8.71;100.00
11114;BME280;5610;52.154;9.198;2023-04-08T05:36:19;101465.31;;;8.73;100.00
11114;BME280;5610;52.154;9.198;2023-04-08T05:39:05;101456.22;;;8.78;100.00
11114;BME280;5610;52.154;9.198;2023-04-08T05:41:50;101452.53;;;8.83;100.00
11114;BME280;5610;52.154;9.198;2023-04-08T05:44:35;101459.50;;;8.85;100.00
11114;BME280;5610;52.154;9.198;2023-04-08T05:47:20;101454.13;;;8.87;100.00
11114;BME280;5610;52.154;9.198;2023-04-08T05:50:06;101462.94;;;8.87;100.00
11114;BME280;5610;52.154;9.198;2023-04-08T05:52:53;101470.66;;;8.93;100.00
11114;BME280;5610;52.154;9.198;2023-04-08T05:55:39;101470.56;;;8.96;100.00
11114;BME280;5610;52.154;9.198;2023-04-08T05:58:24;101477.59;;;8.97;100.00
11114;BME280;5610;52.154;9.198;2023-04-08T06:01:09;101482.06;;;8.97;100.00
11114;BME280;5610;52.154;9.198;2023-04-08T06:03:54;101494.09;;;9.05;100.00
11114;BME280;5610;52.154;9.198;2023-04-08T06:06:40;101496.81;;;9.04;100.00
11114;BME280;5610;52.154;9.198;2023-04-08T06:09:26;101487.06;;;9.04;100.00
11114;BME280;5610;52.154;9.198;2023-04-08T06:12:12;101500.59;;;8.98;100.00
11114;BME280;5610;52.154;9.198;2023-04-08T06:14:57;101491.84;;;8.96;100.00
11114;BME280;5610;52.154;9.198;2023-04-08T06:17:42;101497.41;;;8.90;100.00
11114;BME280;5610;52.154;9.198;2023-04-08T06:20:27;101493.97;;;8.87;100.00
11114;BME280;5610;52.154;9.198;2023-04-08T06:23:12;101499.38;;;8.85;100.00
11114;BME280;5610;52.154;9.198;2023-04-08T06:25:59;101501.22;;;8.83;100.00
11114;BME280;5610;52.154;9.198;2023-04-08T06:28:44;101506.78;;;8.77;100.00
11114;BME280;5610;52.154;9.198;2023-04-08T06:31:29;101511.09;;;8.79;100.00
11114;BME280;5610;52.154;9.198;2023-04-08T06:34:14;101511.72;;;8.86;100.00
11114;BME280;5610;52.154;9.198;2023-04-08T06:37:00;101504.25;;;8.96;100.00
11114;BME280;5610;52.154;9.198;2023-04-08T06:39:45;101515.38;;;9.05;100.00
11114;BME280;5610;52.154;9.198;2023-04-08T06:42:31;101516.78;;;9.14;100.00
11114;BME280;5610;52.154;9.198;2023-04-08T06:45:31;101513.78;;;9.22;100.00
11114;BME280;5610;52.154;9.198;2023-04-08T06:48:17;101519.09;;;9.22;100.00
11114;BME280;5610;52.154;9.198;2023-04-08T06:51:03;101523.63;;;9.20;100.00
11114;BME280;5610;52.154;9.198;2023-04-08T06:53:50;101523.78;;;9.17;100.00
11114;BME280;5610;52.154;9.198;2023-04-08T06:56:35;101530.69;;;9.21;100.00
11114;BME280;5610;52.154;9.198;2023-04-08T06:59:22;101526.13;;;9.24;100.00
11114;BME280;5610;52.154;9.198;2023-04-08T07:02:07;101531.19;;;9.30;100.00
11114;BME280;5610;52.154;9.198;2023-04-08T07:04:52;101529.25;;;9.34;100.00
11114;BME280;5610;52.154;9.198;2023-04-08T07:07:37;101541.50;;;9.38;100.00
11114;BME280;5610;52.154;9.198;2023-04-08T07:10:22;101540.22;;;9.47;100.00
11114;BME280;5610;52.154;9.198;2023-04-08T07:13:08;101539.38;;;9.46;100.00
11114;BME280;5610;52.154;9.198;2023-04-08T07:15:54;101546.16;;;9.53;100.00
11114;BME280;5610;52.154;9.198;2023-04-08T07:18:40;101553.66;;;9.64;100.00
11114;BME280;5610;52.154;9.198;2023-04-08T07:21:26;101549.34;;;9.61;100.00
11114;BME280;5610;52.154;9.198;2023-04-08T07:24:13;101555.59;;;9.60;100.00
11114;BME280;5610;52.154;9.198;2023-04-08T07:26:59;101558.00;;;9.67;100.00
11114;BME280;5610;52.154;9.198;2023-04-08T07:29:44;101554.16;;;9.74;100.00
11114;BME280;5610;52.154;9.198;2023-04-08T07:32:31;101558.97;;;9.84;100.00
11114;BME280;5610;52.154;9.198;2023-04-08T07:35:16;101555.97;;;9.92;100.00
11114;BME280;5610;52.154;9.198;2023-04-08T07:38:07;101561.81;;;10.00;100.00
11114;BME280;5610;52.154;9.198;2023-04-08T07:40:54;101550.72;;;10.11;100.00
11114;BME280;5610;52.154;9.198;2023-04-08T07:43:39;101554.69;;;10.21;100.00
11114;BME280;5610;52.154;9.198;2023-04-08T07:46:25;101555.63;;;10.20;100.00
11114;BME280;5610;52.154;9.198;2023-04-08T07:49:11;101566.34;;;10.18;100.00
11114;BME280;5610;52.154;9.198;2023-04-08T07:51:57;101568.50;;;10.10;100.00
11114;BME280;5610;52.154;9.198;2023-04-08T07:54:42;101570.22;;;10.11;100.00
11114;BME280;5610;52.154;9.198;2023-04-08T07:57:28;101564.03;;;10.11;100.00
11114;BME280;5610;52.154;9.198;2023-04-08T08:00:14;101573.63;;;10.15;100.00
11114;BME280;5610;52.154;9.198;2023-04-08T08:03:04;101579.41;;;10.25;100.00
11114;BME280;5610;52.154;9.198;2023-04-08T08:05:51;101575.19;;;10.39;100.00
11114;BME280;5610;52.154;9.198;2023-04-08T08:08:36;101569.88;;;10.58;100.00
11114;BME280;5610;52.154;9.198;2023-04-08T08:11:21;101571.09;;;10.70;100.00
11114;BME280;5610;52.154;9.198;2023-04-08T08:14:07;101575.28;;;10.76;100.00
11114;BME280;5610;52.154;9.198;2023-04-08T08:16:54;101578.97;;;10.73;100.00
11114;BME280;5610;52.154;9.198;2023-04-08T08:19:40;101584.28;;;10.54;100.00
11114;BME280;5610;52.154;9.198;2023-04-08T08:22:26;101575.69;;;10.48;100.00
11114;BME280;5610;52.154;9.198;2023-04-08T08:25:11;101577.78;;;10.41;100.00
11114;BME280;5610;52.154;9.198;2023-04-08T08:27:57;101580.31;;;10.44;100.00
11114;BME280;5610;52.154;9.198;2023-04-08T08:30:42;101581.53;;;10.56;100.00
11114;BME280;5610;52.154;9.198;2023-04-08T08:33:27;101579.38;;;10.64;100.00
11114;BME280;5610;52.154;9.198;2023-04-08T08:36:13;101589.81;;;10.68;100.00
11114;BME280;5610;52.154;9.198;2023-04-08T08:39:00;101591.34;;;10.74;100.00
11114;BME280;5610;52.154;9.198;2023-04-08T08:41:45;101590.13;;;10.81;100.00
11114;BME280;5610;52.154;9.198;2023-04-08T08:44:30;101598.91;;;10.83;100.00
11114;BME280;5610;52.154;9.198;2023-04-08T08:47:16;101589.19;;;10.82;100.00
11114;BME280;5610;52.154;9.198;2023-04-08T08:50:02;101597.00;;;10.85;100.00
11114;BME280;5610;52.154;9.198;2023-04-08T08:52:48;101593.28;;;10.89;100.00
11114;BME280;5610;52.154;9.198;2023-04-08T08:55:35;101595.75;;;10.94;100.00
11114;BME280;5610;52.154;9.198;2023-04-08T08:58:21;101590.03;;;11.02;100.00
11114;BME280;5610;52.154;9.198;2023-04-08T09:01:29;101596.94;;;11.06;100.00
11114;BME280;5610;52.154;9.198;2023-04-08T09:04:16;101595.13;;;11.06;100.00
11114;BME280;5610;52.154;9.198;2023-04-08T09:07:09;101607.41;;;10.91;100.00
11114;BME280;5610;52.154;9.198;2023-04-08T09:09:58;101602.44;;;10.84;100.00
11114;BME280;5610;52.154;9.198;2023-04-08T09:12:54;101610.94;;;10.73;100.00
11114;BME280;5610;52.154;9.198;2023-04-08T09:15:59;101610.88;;;10.75;100.00
11114;BME280;5610;52.154;9.198;2023-04-08T09:18:46;101618.13;;;10.90;100.00
11114;BME280;5610;52.154;9.198;2023-04-08T09:21:32;101615.84;;;11.01;100.00
11114;BME280;5610;52.154;9.198;2023-04-08T09:24:29;101629.88;;;11.05;100.00
11114;BME280;5610;52.154;9.198;2023-04-08T09:27:15;101628.88;;;11.07;100.00
11114;BME280;5610;52.154;9.198;2023-04-08T09:30:13;101631.22;;;11.13;100.00
11114;BME280;5610;52.154;9.198;2023-04-08T09:32:58;101631.97;;;11.17;100.00
11114;BME280;5610;52.154;9.198;2023-04-08T09:35:44;101637.09;;;11.21;100.00
11114;BME280;5610;52.154;9.198;2023-04-08T09:38:29;101639.59;;;11.24;100.00
11114;BME280;5610;52.154;9.198;2023-04-08T09:41:16;101629.66;;;11.28;100.00
11114;BME280;5610;52.154;9.198;2023-04-08T09:44:03;101639.28;;;11.49;100.00
11114;BME280;5610;52.154;9.198;2023-04-08T09:46:55;101642.50;;;11.56;100.00
11114;BME280;5610;52.154;9.198;2023-04-08T09:49:47;101637.09;;;11.75;100.00
11114;BME280;5610;52.154;9.198;2023-04-08T09:52:43;101644.22;;;11.93;100.00
11114;BME280;5610;52.154;9.198;2023-04-08T09:55:29;101644.50;;;12.04;100.00
11114;BME280;5610;52.154;9.198;2023-04-08T09:58:21;101647.19;;;12.22;100.00
11114;BME280;5610;52.154;9.198;2023-04-08T10:01:13;101652.53;;;12.22;100.00
11114;BME280;5610;52.154;9.198;2023-04-08T10:04:04;101648.22;;;12.19;100.00
11114;BME280;5610;52.154;9.198;2023-04-08T10:06:53;101644.09;;;12.29;100.00
11114;BME280;5610;52.154;9.198;2023-04-08T10:09:38;101642.91;;;12.35;100.00
11114;BME280;5610;52.154;9.198;2023-04-08T10:12:26;101650.84;;;12.36;100.00
11114;BME280;5610;52.154;9.198;2023-04-08T10:15:21;101655.75;;;12.28;100.00
11114;BME280;5610;52.154;9.198;2023-04-08T10:18:29;101654.16;;;12.24;100.00
11114;BME280;5610;52.154;9.198;2023-04-08T10:21:32;101654.63;;;12.32;100.00
11114;BME280;5610;52.154;9.198;2023-04-08T10:24:17;101647.94;;;12.24;100.00
11114;BME280;5610;52.154;9.198;2023-04-08T10:27:34;101658.16;;;12.33;100.00
11114;BME280;5610;52.154;9.198;2023-04-08T10:30:39;101657.50;;;12.45;100.00
11114;BME280;5610;52.154;9.198;2023-04-08T10:33:31;101657.00;;;12.54;100.00
11114;BME280;5610;52.154;9.198;2023-04-08T10:36:17;101658.53;;;12.43;100.00
11114;BME280;5610;52.154;9.198;2023-04-08T10:39:04;101652.03;;;12.31;100.00
11114;BME280;5610;52.154;9.198;2023-04-08T10:41:50;101647.47;;;12.33;100.00
11114;BME280;5610;52.154;9.198;2023-04-08T10:44:35;101653.69;;;12.33;100.00
11114;BME280;5610;52.154;9.198;2023-04-08T10:47:24;101657.22;;;12.34;100.00
11114;BME280;5610;52.154;9.198;2023-04-08T10:50:12;101653.84;;;12.48;100.00
11114;BME280;5610;52.154;9.198;2023-04-08T10:52:57;101634.88;;;12.68;100.00
11114;BME280;5610;52.154;9.198;2023-04-08T10:55:44;101638.56;;;12.99;100.00
11114;BME280;5610;52.154;9.198;2023-04-08T10:58:29;101641.16;;;13.32;100.00
11114;BME280;5610;52.154;9.198;2023-04-08T11:01:15;101635.19;;;13.42;100.00
11114;BME280;5610;52.154;9.198;2023-04-08T11:04:00;101647.38;;;13.48;100.00
11114;BME280;5610;52.154;9.198;2023-04-08T11:06:45;101649.00;;;13.51;100.00
11114;BME280;5610;52.154;9.198;2023-04-08T11:09:33;101641.41;;;13.43;99.79
11114;BME280;5610;52.154;9.198;2023-04-08T11:12:19;101640.97;;;13.51;100.00
11114;BME280;5610;52.154;9.198;2023-04-08T11:15:05;101646.94;;;13.56;99.95
11114;BME280;5610;52.154;9.198;2023-04-08T11:17:51;101643.81;;;13.32;100.00
11114;BME280;5610;52.154;9.198;2023-04-08T11:20:37;101641.16;;;13.32;100.00
11114;BME280;5610;52.154;9.198;2023-04-08T11:23:24;101651.63;;;13.21;100.00
11114;BME280;5610;52.154;9.198;2023-04-08T11:26:10;101653.97;;;13.27;100.00
11114;BME280;5610;52.154;9.198;2023-04-08T11:28:57;101655.06;;;13.23;100.00
11114;BME280;5610;52.154;9.198;2023-04-08T11:31:44;101656.22;;;13.17;100.00
11114;BME280;5610;52.154;9.198;2023-04-08T11:34:29;101657.84;;;13.21;100.00
11114;BME280;5610;52.154;9.198;2023-04-08T11:37:15;101651.06;;;13.14;100.00
11114;BME280;5610;52.154;9.198;2023-04-08T11:40:00;101655.31;;;13.18;100.00
11114;BME280;5610;52.154;9.198;2023-04-08T11:42:46;101652.53;;;13.19;100.00
11114;BME280;5610;52.154;9.198;2023-04-08T11:45:37;101656.22;;;13.17;100.00
11114;BME280;5610;52.154;9.198;2023-04-08T11:48:23;101648.59;;;13.11;100.00
11114;BME280;5610;52.154;9.198;2023-04-08T11:51:08;101651.41;;;13.08;100.00
11114;BME280;5610;52.154;9.198;2023-04-08T11:53:53;101643.63;;;13.03;100.00
11114;BME280;5610;52.154;9.198;2023-04-08T11:56:43;101647.00;;;13.07;100.00
11114;BME280;5610;52.154;9.198;2023-04-08T11:59:29;101649.00;;;13.19;100.00
11114;BME280;5610;52.154;9.198;2023-04-08T12:02:16;101655.78;;;13.26;100.00
11114;BME280;5610;52.154;9.198;2023-04-08T12:05:01;101658.59;;;13.23;100.00
11114;BME280;5610;52.154;9.198;2023-04-08T12:07:46;101664.81;;;13.24;100.00
11114;BME280;5610;52.154;9.198;2023-04-08T12:10:31;101657.28;;;13.14;100.00
11114;BME280;5610;52.154;9.198;2023-04-08T12:13:17;101668.50;;;13.05;100.00
11114;BME280;5610;52.154;9.198;2023-04-08T12:16:02;101666.75;;;12.88;100.00
11114;BME280;5610;52.154;9.198;2023-04-08T12:18:49;101673.91;;;12.88;100.00
11114;BME280;5610;52.154;9.198;2023-04-08T12:21:34;101676.06;;;12.81;100.00
11114;BME280;5610;52.154;9.198;2023-04-08T12:24:19;101677.50;;;12.71;100.00
11114;BME280;5610;52.154;9.198;2023-04-08T12:27:05;101674.22;;;12.66;100.00
11114;BME280;5610;52.154;9.198;2023-04-08T12:29:50;101670.00;;;12.62;100.00
11114;BME280;5610;52.154;9.198;2023-04-08T12:32:36;101669.13;;;12.61;100.00
11114;BME280;5610;52.154;9.198;2023-04-08T12:35:23;101670.31;;;12.56;100.00
11114;BME280;5610;52.154;9.198;2023-04-08T12:38:08;101667.22;;;12.63;100.00
11114;BME280;5610;52.154;9.198;2023-04-08T12:40:53;101667.84;;;12.69;100.00
11114;BME280;5610;52.154;9.198;2023-04-08T12:43:39;101678.38;;;12.72;100.00
11114;BME280;5610;52.154;9.198;2023-04-08T12:46:24;101681.72;;;12.75;100.00
11114;BME280;5610;52.154;9.198;2023-04-08T12:49:10;101680.19;;;12.71;100.00
11114;BME280;5610;52.154;9.198;2023-04-08T12:51:57;101682.94;;;12.70;100.00
11114;BME280;5610;52.154;9.198;2023-04-08T12:54:42;101677.84;;;12.65;100.00
11114;BME280;5610;52.154;9.198;2023-04-08T12:57:28;101681.22;;;12.69;100.00
11114;BME280;5610;52.154;9.198;2023-04-08T13:00:15;101680.97;;;12.73;100.00
11114;BME280;5610;52.154;9.198;2023-04-08T13:03:00;101677.50;;;12.71;100.00
11114;BME280;5610;52.154;9.198;2023-04-08T13:05:45;101671.44;;;12.68;100.00
11114;BME280;5610;52.154;9.198;2023-04-08T13:08:33;101676.25;;;12.61;100.00
11114;BME280;5610;52.154;9.198;2023-04-08T13:11:19;101676.34;;;12.59;100.00
11114;BME280;5610;52.154;9.198;2023-04-08T13:14:05;101668.63;;;12.71;100.00
11114;BME280;5610;52.154;9.198;2023-04-08T13:16:50;101653.75;;;12.98;100.00
11114;BME280;5610;52.154;9.198;2023-04-08T13:19:35;101650.03;;;13.16;100.00
11114;BME280;5610;52.154;9.198;2023-04-08T13:22:20;101657.03;;;13.19;100.00
11114;BME280;5610;52.154;9.198;2023-04-08T13:25:07;101666.81;;;13.20;100.00
11114;BME280;5610;52.154;9.198;2023-04-08T13:27:53;101667.91;;;13.16;100.00
11114;BME280;5610;52.154;9.198;2023-04-08T13:30:38;101661.06;;;13.10;100.00
11114;BME280;5610;52.154;9.198;2023-04-08T13:33:23;101670.91;;;13.10;100.00
11114;BME280;5610;52.154;9.198;2023-04-08T13:36:08;101655.28;;;13.02;100.00
11114;BME280;5610;52.154;9.198;2023-04-08T13:38:53;101660.19;;;12.94;100.00
11114;BME280;5610;52.154;9.198;2023-04-08T13:41:40;101666.31;;;12.80;100.00
11114;BME280;5610;52.154;9.198;2023-04-08T13:44:25;101675.16;;;12.65;100.00
11114;BME280;5610;52.154;9.198;2023-04-08T13:47:11;101678.34;;;12.56;100.00
11114;BME280;5610;52.154;9.198;2023-04-08T13:49:56;101676.00;;;12.50;100.00
11114;BME280;5610;52.154;9.198;2023-04-08T13:52:41;101678.22;;;12.42;100.00
11114;BME280;5610;52.154;9.198;2023-04-08T13:55:27;101670.25;;;12.40;100.00
11114;BME280;5610;52.154;9.198;2023-04-08T13:58:13;101670.34;;;12.38;100.00
11114;BME280;5610;52.154;9.198;2023-04-08T14:00:58;101665.97;;;12.53;100.00
11114;BME280;5610;52.154;9.198;2023-04-08T14:03:43;101662.56;;;12.67;100.00
11114;BME280;5610;52.154;9.198;2023-04-08T14:06:29;101662.69;;;12.81;100.00
11114;BME280;5610;52.154;9.198;2023-04-08T14:09:15;101654.34;;;13.03;100.00
11114;BME280;5610;52.154;9.198;2023-04-08T14:12:01;101647.44;;;13.15;100.00
11114;BME280;5610;52.154;9.198;2023-04-08T14:14:47;101647.41;;;13.32;100.00
11114;BME280;5610;52.154;9.198;2023-04-08T14:17:32;101645.19;;;13.39;100.00
11114;BME280;5610;52.154;9.198;2023-04-08T14:20:19;101650.47;;;13.56;100.00
11114;BME280;5610;52.154;9.198;2023-04-08T14:23:04;101654.59;;;13.62;100.00
11114;BME280;5610;52.154;9.198;2023-04-08T14:25:49;101660.31;;;13.56;100.00
11114;BME280;5610;52.154;9.198;2023-04-08T14:28:35;101654.72;;;13.60;100.00
11114;BME280;5610;52.154;9.198;2023-04-08T14:31:21;101658.25;;;13.61;100.00
11114;BME280;5610;52.154;9.198;2023-04-08T14:34:06;101658.84;;;13.50;100.00
11114;BME280;5610;52.154;9.198;2023-04-08T14:36:52;101659.81;;;13.33;100.00